Time;durP1;ratioP1;P1;durP2;ratioP2;P2;SDS_P1;SDS_P2;PMS_P1;PMS_P2;Temp;Humidity;BMP_temperature;BMP_pressure;BME280_temperature;BME280_humidity;BME280_pressure;Samples;Min_cycle;Max_cycle;Signal;HPM_P1;HPM_P2
2020/11/10 00:00:26;;;;;;;33.35;12.25;;;;;;;4.82;75.62012;96020.57;;;;
2020/11/10 00:01:26;;;;;;;33.35;12.25;;;;;;;4.82;75.62012;96020.57;;;;
2020/11/10 00:02:27;;;;;;;43.8;12.3;;;;;;;4.75;75.84082;96017.77;;;;
2020/11/10 00:03:28;;;;;;;43.8;12.3;;;;;;;4.75;75.84082;96017.77;;;;
2020/11/10 00:04:28;;;;;;;43.8;12.3;;;;;;;4.75;75.84082;96017.77;;;;
2020/11/10 00:05:28;;;;;;;43.8;12.3;;;;;;;4.75;75.84082;96017.77;;;;
2020/11/10 00:06:29;;;;;;;43.8;12.3;;;;;;;4.75;75.84082;96017.77;;;;
2020/11/10 00:07:30;;;;;;;43.8;12.3;;;;;;;4.75;75.84082;96017.77;;;;
2020/11/10 00:08:32;;;;;;;43.8;12.3;;;;;;;4.75;75.84082;96017.77;;;;
2020/11/10 00:09:33;;;;;;;43.8;12.3;;;;;;;4.75;75.84082;96017.77;;;;
2020/11/10 00:10:33;;;;;;;43.8;12.3;;;;;;;4.75;75.84082;96017.77;;;;
2020/11/10 00:11:34;;;;;;;43.8;12.3;;;;;;;4.75;75.84082;96017.77;;;;
2020/11/10 00:12:34;;;;;;;43.8;12.3;;;;;;;4.75;75.84082;96017.77;;;;
2020/11/10 00:13:35;;;;;;;38.45;12.2;;;;;;;4.66;76.01465;96028.22;;;;
2020/11/10 00:14:36;;;;;;;38.45;12.2;;;;;;;4.66;76.01465;96028.22;;;;
2020/11/10 00:15:36;;;;;;;38.45;12.2;;;;;;;4.66;76.01465;96028.22;;;;
2020/11/10 00:16:37;;;;;;;38.45;12.2;;;;;;;4.66;76.01465;96028.22;;;;
2020/11/10 00:17:37;;;;;;;38.45;12.2;;;;;;;4.66;76.01465;96028.22;;;;
2020/11/10 00:18:39;;;;;;;38.45;12.2;;;;;;;4.66;76.01465;96028.22;;;;
2020/11/10 00:19:39;;;;;;;38.45;12.2;;;;;;;4.66;76.01465;96028.22;;;;
2020/11/10 00:20:39;;;;;;;38.45;12.2;;;;;;;4.66;76.01465;96028.22;;;;
2020/11/10 00:21:40;;;;;;;38.45;12.2;;;;;;;4.66;76.01465;96028.22;;;;
2020/11/10 00:22:41;;;;;;;38.45;12.2;;;;;;;4.66;76.01465;96028.22;;;;
2020/11/10 00:23:41;;;;;;;38.45;12.2;;;;;;;4.66;76.01465;96028.22;;;;
2020/11/10 00:24:43;;;;;;;120.5;14.9;;;;;;;4.66;76.09863;96021.95;;;;
2020/11/10 00:25:43;;;;;;;120.5;14.9;;;;;;;4.66;76.09863;96021.95;;;;
2020/11/10 00:26:49;;;;;;;120.5;14.9;;;;;;;4.66;76.09863;96021.95;;;;
2020/11/10 00:27:49;;;;;;;120.5;14.9;;;;;;;4.66;76.09863;96021.95;;;;
2020/11/10 00:28:50;;;;;;;120.5;14.9;;;;;;;4.66;76.09863;96021.95;;;;
2020/11/10 00:29:53;;;;;;;120.5;14.9;;;;;;;4.66;76.09863;96021.95;;;;
2020/11/10 00:30:54;;;;;;;120.5;14.9;;;;;;;4.66;76.09863;96021.95;;;;
2020/11/10 00:31:55;;;;;;;120.5;14.9;;;;;;;4.66;76.09863;96021.95;;;;
2020/11/10 00:32:55;;;;;;;120.5;14.9;;;;;;;4.66;76.09863;96021.95;;;;
2020/11/10 00:33:56;;;;;;;120.5;14.9;;;;;;;4.66;76.09863;96021.95;;;;
2020/11/10 00:34:56;;;;;;;97.85001;14.1;;;;;;;4.57;76.06055;96023.57;;;;
2020/11/10 00:35:57;;;;;;;97.85001;14.1;;;;;;;4.57;76.06055;96023.57;;;;
2020/11/10 00:36:57;;;;;;;97.85001;14.1;;;;;;;4.57;76.06055;96023.57;;;;
2020/11/10 00:37:58;;;;;;;97.85001;14.1;;;;;;;4.57;76.06055;96023.57;;;;
2020/11/10 00:38:58;;;;;;;97.85001;14.1;;;;;;;4.57;76.06055;96023.57;;;;
2020/11/10 00:39:59;;;;;;;97.85001;14.1;;;;;;;4.57;76.06055;96023.57;;;;
2020/11/10 00:40:59;;;;;;;97.85001;14.1;;;;;;;4.57;76.06055;96023.57;;;;
2020/11/10 00:42:00;;;;;;;97.85001;14.1;;;;;;;4.57;76.06055;96023.57;;;;
2020/11/10 00:43:00;;;;;;;97.85001;14.1;;;;;;;4.57;76.06055;96023.57;;;;
2020/11/10 00:44:01;;;;;;;97.85001;14.1;;;;;;;4.57;76.06055;96023.57;;;;
2020/11/10 00:45:02;;;;;;;97.85001;14.1;;;;;;;4.57;76.06055;96023.57;;;;
2020/11/10 00:46:03;;;;;;;87.00002;15.3;;;;;;;4.49;76.33398;96030.24;;;;
2020/11/10 00:47:03;;;;;;;87.00002;15.3;;;;;;;4.49;76.33398;96030.24;;;;
2020/11/10 00:48:04;;;;;;;87.00002;15.3;;;;;;;4.49;76.33398;96030.24;;;;
2020/11/10 00:49:05;;;;;;;87.00002;15.3;;;;;;;4.49;76.33398;96030.24;;;;
2020/11/10 00:50:05;;;;;;;87.00002;15.3;;;;;;;4.49;76.33398;96030.24;;;;
2020/11/10 00:51:06;;;;;;;87.00002;15.3;;;;;;;4.49;76.33398;96030.24;;;;
2020/11/10 00:52:07;;;;;;;87.00002;15.3;;;;;;;4.49;76.33398;96030.24;;;;
2020/11/10 00:53:08;;;;;;;87.00002;15.3;;;;;;;4.49;76.33398;96030.24;;;;
2020/11/10 00:54:09;;;;;;;87.00002;15.3;;;;;;;4.49;76.33398;96030.24;;;;
2020/11/10 00:55:09;;;;;;;87.00002;15.3;;;;;;;4.49;76.33398;96030.24;;;;
2020/11/10 00:56:15;;;;;;;139.3;14.4;;;;;;;4.39;76.44043;96037.66;;;;
2020/11/10 00:57:15;;;;;;;139.3;14.4;;;;;;;4.39;76.44043;96037.66;;;;
2020/11/10 00:58:16;;;;;;;139.3;14.4;;;;;;;4.39;76.44043;96037.66;;;;
2020/11/10 00:59:16;;;;;;;139.3;14.4;;;;;;;4.39;76.44043;96037.66;;;;
2020/11/10 01:00:17;;;;;;;139.3;14.4;;;;;;;4.39;76.44043;96037.66;;;;
2020/11/10 01:01:26;;;;;;;139.3;14.4;;;;;;;4.39;76.44043;96037.66;;;;
2020/11/10 01:02:26;;;;;;;139.3;14.4;;;;;;;4.39;76.44043;96037.66;;;;
2020/11/10 01:03:27;;;;;;;139.3;14.4;;;;;;;4.39;76.44043;96037.66;;;;
2020/11/10 01:04:27;;;;;;;139.3;14.4;;;;;;;4.39;76.44043;96037.66;;;;
2020/11/10 01:05:28;;;;;;;139.3;14.4;;;;;;;4.39;76.44043;96037.66;;;;
2020/11/10 01:06:28;;;;;;;42.34999;11.65;;;;;;;4.35;76.60254;96036.88;;;;
2020/11/10 01:07:29;;;;;;;42.34999;11.65;;;;;;;4.35;76.60254;96036.88;;;;
2020/11/10 01:08:29;;;;;;;42.34999;11.65;;;;;;;4.35;76.60254;96036.88;;;;
2020/11/10 01:09:30;;;;;;;42.34999;11.65;;;;;;;4.35;76.60254;96036.88;;;;
2020/11/10 01:10:31;;;;;;;42.34999;11.65;;;;;;;4.35;76.60254;96036.88;;;;
2020/11/10 01:11:31;;;;;;;42.34999;11.65;;;;;;;4.35;76.60254;96036.88;;;;
2020/11/10 01:12:32;;;;;;;42.34999;11.65;;;;;;;4.35;76.60254;96036.88;;;;
2020/11/10 01:13:32;;;;;;;42.34999;11.65;;;;;;;4.35;76.60254;96036.88;;;;
2020/11/10 01:14:33;;;;;;;42.34999;11.65;;;;;;;4.35;76.60254;96036.88;;;;
2020/11/10 01:15:33;;;;;;;42.34999;11.65;;;;;;;4.35;76.60254;96036.88;;;;
2020/11/10 01:16:34;;;;;;;42.34999;11.65;;;;;;;4.35;76.60254;96036.88;;;;
2020/11/10 01:17:34;;;;;;;18.95;9.400002;;;;;;;4.2;76.72266;96038.65;;;;
2020/11/10 01:18:35;;;;;;;18.95;9.400002;;;;;;;4.2;76.72266;96038.65;;;;
2020/11/10 01:19:36;;;;;;;18.95;9.400002;;;;;;;4.2;76.72266;96038.65;;;;
2020/11/10 01:20:36;;;;;;;18.95;9.400002;;;;;;;4.2;76.72266;96038.65;;;;
2020/11/10 01:21:37;;;;;;;18.95;9.400002;;;;;;;4.2;76.72266;96038.65;;;;
2020/11/10 01:22:38;;;;;;;18.95;9.400002;;;;;;;4.2;76.72266;96038.65;;;;
2020/11/10 01:23:39;;;;;;;18.95;9.400002;;;;;;;4.2;76.72266;96038.65;;;;
2020/11/10 01:24:39;;;;;;;18.95;9.400002;;;;;;;4.2;76.72266;96038.65;;;;
2020/11/10 01:25:43;;;;;;;18.95;9.400002;;;;;;;4.2;76.72266;96038.65;;;;
2020/11/10 01:26:44;;;;;;;18.95;9.400002;;;;;;;4.2;76.72266;96038.65;;;;
2020/11/10 01:27:44;;;;;;;18.95;9.400002;;;;;;;4.2;76.72266;96038.65;;;;
2020/11/10 01:28:45;;;;;;;23.7;10;;;;;;;4.05;76.95996;96031.09;;;;
2020/11/10 01:29:45;;;;;;;23.7;10;;;;;;;4.05;76.95996;96031.09;;;;
2020/11/10 01:30:46;;;;;;;23.7;10;;;;;;;4.05;76.95996;96031.09;;;;
2020/11/10 01:31:46;;;;;;;23.7;10;;;;;;;4.05;76.95996;96031.09;;;;
2020/11/10 01:32:47;;;;;;;23.7;10;;;;;;;4.05;76.95996;96031.09;;;;
2020/11/10 01:33:47;;;;;;;23.7;10;;;;;;;4.05;76.95996;96031.09;;;;
2020/11/10 01:34:48;;;;;;;23.7;10;;;;;;;4.05;76.95996;96031.09;;;;
2020/11/10 01:35:50;;;;;;;23.7;10;;;;;;;4.05;76.95996;96031.09;;;;
2020/11/10 01:36:50;;;;;;;23.7;10;;;;;;;4.05;76.95996;96031.09;;;;
2020/11/10 01:37:51;;;;;;;23.7;10;;;;;;;4.05;76.95996;96031.09;;;;
2020/11/10 01:38:51;;;;;;;14.15;8.450001;;;;;;;3.82;77.12988;96031.06;;;;
2020/11/10 01:39:52;;;;;;;14.15;8.450001;;;;;;;3.82;77.12988;96031.06;;;;
2020/11/10 01:40:52;;;;;;;14.15;8.450001;;;;;;;3.82;77.12988;96031.06;;;;
2020/11/10 01:41:53;;;;;;;14.15;8.450001;;;;;;;3.82;77.12988;96031.06;;;;
2020/11/10 01:42:53;;;;;;;14.15;8.450001;;;;;;;3.82;77.12988;96031.06;;;;
2020/11/10 01:43:54;;;;;;;14.15;8.450001;;;;;;;3.82;77.12988;96031.06;;;;
2020/11/10 01:44:54;;;;;;;14.15;8.450001;;;;;;;3.82;77.12988;96031.06;;;;
2020/11/10 01:45:55;;;;;;;14.15;8.450001;;;;;;;3.82;77.12988;96031.06;;;;
2020/11/10 01:46:56;;;;;;;14.15;8.450001;;;;;;;3.82;77.12988;96031.06;;;;
2020/11/10 01:48:02;;;;;;;14.15;8.450001;;;;;;;3.82;77.12988;96031.06;;;;
2020/11/10 01:49:15;;;;;;;33.6;9.050002;;;;;;;3.63;77.2959;96033.26;;;;
2020/11/10 01:50:16;;;;;;;33.6;9.050002;;;;;;;3.63;77.2959;96033.26;;;;
2020/11/10 01:51:17;;;;;;;33.6;9.050002;;;;;;;3.63;77.2959;96033.26;;;;
2020/11/10 01:52:20;;;;;;;33.6;9.050002;;;;;;;3.63;77.2959;96033.26;;;;
2020/11/10 01:53:20;;;;;;;33.6;9.050002;;;;;;;3.63;77.2959;96033.26;;;;
2020/11/10 01:54:21;;;;;;;33.6;9.050002;;;;;;;3.63;77.2959;96033.26;;;;
2020/11/10 01:55:21;;;;;;;33.6;9.050002;;;;;;;3.63;77.2959;96033.26;;;;
2020/11/10 01:56:22;;;;;;;33.6;9.050002;;;;;;;3.63;77.2959;96033.26;;;;
2020/11/10 01:57:23;;;;;;;33.6;9.050002;;;;;;;3.63;77.2959;96033.26;;;;
2020/11/10 01:58:24;;;;;;;33.6;9.050002;;;;;;;3.63;77.2959;96033.26;;;;
2020/11/10 01:59:25;;;;;;;33.6;9.050002;;;;;;;3.63;77.2959;96033.26;;;;
2020/11/10 02:00:25;;;;;;;14.25;9.049999;;;;;;;3.46;77.44434;96020.08;;;;
2020/11/10 02:01:26;;;;;;;14.25;9.049999;;;;;;;3.46;77.44434;96020.08;;;;
2020/11/10 02:02:30;;;;;;;14.25;9.049999;;;;;;;3.46;77.44434;96020.08;;;;
2020/11/10 02:03:31;;;;;;;14.25;9.049999;;;;;;;3.46;77.44434;96020.08;;;;
2020/11/10 02:04:34;;;;;;;14.25;9.049999;;;;;;;3.46;77.44434;96020.08;;;;
2020/11/10 02:05:35;;;;;;;14.25;9.049999;;;;;;;3.46;77.44434;96020.08;;;;
2020/11/10 02:06:37;;;;;;;14.25;9.049999;;;;;;;3.46;77.44434;96020.08;;;;
2020/11/10 02:07:37;;;;;;;14.25;9.049999;;;;;;;3.46;77.44434;96020.08;;;;
2020/11/10 02:08:38;;;;;;;14.25;9.049999;;;;;;;3.46;77.44434;96020.08;;;;
2020/11/10 02:09:38;;;;;;;14.25;9.049999;;;;;;;3.46;77.44434;96020.08;;;;
2020/11/10 02:10:42;;;;;;;24.35;10.7;;;;;;;3.36;77.41504;96030.64;;;;
2020/11/10 02:11:43;;;;;;;24.35;10.7;;;;;;;3.36;77.41504;96030.64;;;;
2020/11/10 02:12:43;;;;;;;24.35;10.7;;;;;;;3.36;77.41504;96030.64;;;;
2020/11/10 02:13:44;;;;;;;24.35;10.7;;;;;;;3.36;77.41504;96030.64;;;;
2020/11/10 02:14:44;;;;;;;24.35;10.7;;;;;;;3.36;77.41504;96030.64;;;;
2020/11/10 02:15:45;;;;;;;24.35;10.7;;;;;;;3.36;77.41504;96030.64;;;;
2020/11/10 02:16:53;;;;;;;24.35;10.7;;;;;;;3.36;77.41504;96030.64;;;;
2020/11/10 02:17:53;;;;;;;24.35;10.7;;;;;;;3.36;77.41504;96030.64;;;;
2020/11/10 02:18:54;;;;;;;24.35;10.7;;;;;;;3.36;77.41504;96030.64;;;;
2020/11/10 02:19:54;;;;;;;24.35;10.7;;;;;;;3.36;77.41504;96030.64;;;;
2020/11/10 02:20:55;;;;;;;24.35;10.7;;;;;;;3.36;77.41504;96030.64;;;;
2020/11/10 02:21:57;;;;;;;16.3;10.25;;;;;;;3.2;77.6709;96023.13;;;;
2020/11/10 02:23:00;;;;;;;16.3;10.25;;;;;;;3.2;77.6709;96023.13;;;;
2020/11/10 02:24:01;;;;;;;16.3;10.25;;;;;;;3.2;77.6709;96023.13;;;;
2020/11/10 02:25:03;;;;;;;16.3;10.25;;;;;;;3.2;77.6709;96023.13;;;;
2020/11/10 02:26:04;;;;;;;16.3;10.25;;;;;;;3.2;77.6709;96023.13;;;;
2020/11/10 02:27:08;;;;;;;16.3;10.25;;;;;;;3.2;77.6709;96023.13;;;;
2020/11/10 02:28:08;;;;;;;16.3;10.25;;;;;;;3.2;77.6709;96023.13;;;;
2020/11/10 02:29:09;;;;;;;16.3;10.25;;;;;;;3.2;77.6709;96023.13;;;;
2020/11/10 02:30:09;;;;;;;16.3;10.25;;;;;;;3.2;77.6709;96023.13;;;;
2020/11/10 02:31:10;;;;;;;16.3;10.25;;;;;;;3.2;77.6709;96023.13;;;;
2020/11/10 02:32:12;;;;;;;14.05;9.700001;;;;;;;3.15;77.75684;96026.29;;;;
2020/11/10 02:33:13;;;;;;;14.05;9.700001;;;;;;;3.15;77.75684;96026.29;;;;
2020/11/10 02:34:13;;;;;;;14.05;9.700001;;;;;;;3.15;77.75684;96026.29;;;;
2020/11/10 02:35:14;;;;;;;14.05;9.700001;;;;;;;3.15;77.75684;96026.29;;;;
2020/11/10 02:36:14;;;;;;;14.05;9.700001;;;;;;;3.15;77.75684;96026.29;;;;
2020/11/10 02:37:17;;;;;;;14.05;9.700001;;;;;;;3.15;77.75684;96026.29;;;;
2020/11/10 02:38:17;;;;;;;14.05;9.700001;;;;;;;3.15;77.75684;96026.29;;;;
2020/11/10 02:39:19;;;;;;;14.05;9.700001;;;;;;;3.15;77.75684;96026.29;;;;
2020/11/10 02:40:19;;;;;;;14.05;9.700001;;;;;;;3.15;77.75684;96026.29;;;;
2020/11/10 02:41:20;;;;;;;14.05;9.700001;;;;;;;3.15;77.75684;96026.29;;;;
2020/11/10 02:42:23;;;;;;;14.05;9.700001;;;;;;;3.15;77.75684;96026.29;;;;
2020/11/10 02:43:23;;;;;;;16.85;10.55;;;;;;;3.03;77.72266;96029.5;;;;
2020/11/10 02:44:24;;;;;;;16.85;10.55;;;;;;;3.03;77.72266;96029.5;;;;
2020/11/10 02:45:24;;;;;;;16.85;10.55;;;;;;;3.03;77.72266;96029.5;;;;
2020/11/10 02:46:25;;;;;;;16.85;10.55;;;;;;;3.03;77.72266;96029.5;;;;
2020/11/10 02:47:26;;;;;;;16.85;10.55;;;;;;;3.03;77.72266;96029.5;;;;
2020/11/10 02:48:26;;;;;;;16.85;10.55;;;;;;;3.03;77.72266;96029.5;;;;
2020/11/10 02:49:27;;;;;;;16.85;10.55;;;;;;;3.03;77.72266;96029.5;;;;
2020/11/10 02:50:27;;;;;;;16.85;10.55;;;;;;;3.03;77.72266;96029.5;;;;
2020/11/10 02:51:28;;;;;;;16.85;10.55;;;;;;;3.03;77.72266;96029.5;;;;
2020/11/10 02:52:28;;;;;;;16.85;10.55;;;;;;;3.03;77.72266;96029.5;;;;
2020/11/10 02:53:29;;;;;;;14.75;9.249999;;;;;;;3;77.875;96015.61;;;;
2020/11/10 02:54:29;;;;;;;14.75;9.249999;;;;;;;3;77.875;96015.61;;;;
2020/11/10 02:55:30;;;;;;;14.75;9.249999;;;;;;;3;77.875;96015.61;;;;
2020/11/10 02:56:31;;;;;;;14.75;9.249999;;;;;;;3;77.875;96015.61;;;;
2020/11/10 02:57:31;;;;;;;14.75;9.249999;;;;;;;3;77.875;96015.61;;;;
2020/11/10 02:58:32;;;;;;;14.75;9.249999;;;;;;;3;77.875;96015.61;;;;
2020/11/10 02:59:32;;;;;;;14.75;9.249999;;;;;;;3;77.875;96015.61;;;;
2020/11/10 03:00:33;;;;;;;14.75;9.249999;;;;;;;3;77.875;96015.61;;;;
2020/11/10 03:01:33;;;;;;;14.75;9.249999;;;;;;;3;77.875;96015.61;;;;
2020/11/10 03:02:34;;;;;;;14.75;9.249999;;;;;;;3;77.875;96015.61;;;;
2020/11/10 03:03:34;;;;;;;14.75;9.249999;;;;;;;3;77.875;96015.61;;;;
2020/11/10 03:04:35;;;;;;;11.05;7.95;;;;;;;2.86;77.80762;96016.29;;;;
2020/11/10 03:05:35;;;;;;;11.05;7.95;;;;;;;2.86;77.80762;96016.29;;;;
2020/11/10 03:06:36;;;;;;;11.05;7.95;;;;;;;2.86;77.80762;96016.29;;;;
2020/11/10 03:07:37;;;;;;;11.05;7.95;;;;;;;2.86;77.80762;96016.29;;;;
2020/11/10 03:08:37;;;;;;;11.05;7.95;;;;;;;2.86;77.80762;96016.29;;;;
2020/11/10 03:09:38;;;;;;;11.05;7.95;;;;;;;2.86;77.80762;96016.29;;;;
2020/11/10 03:10:38;;;;;;;11.05;7.95;;;;;;;2.86;77.80762;96016.29;;;;
2020/11/10 03:11:40;;;;;;;11.05;7.95;;;;;;;2.86;77.80762;96016.29;;;;
2020/11/10 03:12:40;;;;;;;11.05;7.95;;;;;;;2.86;77.80762;96016.29;;;;
2020/11/10 03:13:41;;;;;;;11.05;7.95;;;;;;;2.86;77.80762;96016.29;;;;
2020/11/10 03:14:41;;;;;;;10.05;7.949999;;;;;;;2.8;78.10059;96025.48;;;;
2020/11/10 03:15:42;;;;;;;10.05;7.949999;;;;;;;2.8;78.10059;96025.48;;;;
2020/11/10 03:16:42;;;;;;;10.05;7.949999;;;;;;;2.8;78.10059;96025.48;;;;
2020/11/10 03:17:43;;;;;;;10.05;7.949999;;;;;;;2.8;78.10059;96025.48;;;;
2020/11/10 03:18:43;;;;;;;10.05;7.949999;;;;;;;2.8;78.10059;96025.48;;;;
2020/11/10 03:19:44;;;;;;;10.05;7.949999;;;;;;;2.8;78.10059;96025.48;;;;
2020/11/10 03:20:44;;;;;;;10.05;7.949999;;;;;;;2.8;78.10059;96025.48;;;;
2020/11/10 03:21:45;;;;;;;10.05;7.949999;;;;;;;2.8;78.10059;96025.48;;;;
2020/11/10 03:22:45;;;;;;;10.05;7.949999;;;;;;;2.8;78.10059;96025.48;;;;
2020/11/10 03:23:46;;;;;;;10.05;7.949999;;;;;;;2.8;78.10059;96025.48;;;;
2020/11/10 03:24:46;;;;;;;10.05;7.949999;;;;;;;2.8;78.10059;96025.48;;;;
2020/11/10 03:25:47;;;;;;;9.349998;7.2;;;;;;;2.69;78.17578;96037.34;;;;
2020/11/10 03:26:47;;;;;;;9.349998;7.2;;;;;;;2.69;78.17578;96037.34;;;;
2020/11/10 03:27:48;;;;;;;9.349998;7.2;;;;;;;2.69;78.17578;96037.34;;;;
2020/11/10 03:28:48;;;;;;;9.349998;7.2;;;;;;;2.69;78.17578;96037.34;;;;
2020/11/10 03:29:49;;;;;;;9.349998;7.2;;;;;;;2.69;78.17578;96037.34;;;;
2020/11/10 03:30:49;;;;;;;9.349998;7.2;;;;;;;2.69;78.17578;96037.34;;;;
2020/11/10 03:31:50;;;;;;;9.349998;7.2;;;;;;;2.69;78.17578;96037.34;;;;
2020/11/10 03:32:50;;;;;;;9.349998;7.2;;;;;;;2.69;78.17578;96037.34;;;;
2020/11/10 03:33:52;;;;;;;9.349998;7.2;;;;;;;2.69;78.17578;96037.34;;;;
2020/11/10 03:34:52;;;;;;;9.349998;7.2;;;;;;;2.69;78.17578;96037.34;;;;
2020/11/10 03:35:53;;;;;;;16.25;7.949999;;;;;;;2.61;78.30859;96038.28;;;;
2020/11/10 03:36:53;;;;;;;16.25;7.949999;;;;;;;2.61;78.30859;96038.28;;;;
2020/11/10 03:37:55;;;;;;;16.25;7.949999;;;;;;;2.61;78.30859;96038.28;;;;
2020/11/10 03:38:55;;;;;;;16.25;7.949999;;;;;;;2.61;78.30859;96038.28;;;;
2020/11/10 03:39:56;;;;;;;16.25;7.949999;;;;;;;2.61;78.30859;96038.28;;;;
2020/11/10 03:40:56;;;;;;;16.25;7.949999;;;;;;;2.61;78.30859;96038.28;;;;
2020/11/10 03:41:57;;;;;;;16.25;7.949999;;;;;;;2.61;78.30859;96038.28;;;;
2020/11/10 03:42:57;;;;;;;16.25;7.949999;;;;;;;2.61;78.30859;96038.28;;;;
2020/11/10 03:43:58;;;;;;;16.25;7.949999;;;;;;;2.61;78.30859;96038.28;;;;
2020/11/10 03:44:58;;;;;;;16.25;7.949999;;;;;;;2.61;78.30859;96038.28;;;;
2020/11/10 03:45:59;;;;;;;16.25;7.949999;;;;;;;2.61;78.30859;96038.28;;;;
2020/11/10 03:46:59;;;;;;;9.4;7.799999;;;;;;;2.43;78.29688;96044.2;;;;
2020/11/10 03:47:59;;;;;;;9.4;7.799999;;;;;;;2.43;78.29688;96044.2;;;;
2020/11/10 03:49:00;;;;;;;9.4;7.799999;;;;;;;2.43;78.29688;96044.2;;;;
2020/11/10 03:50:00;;;;;;;9.4;7.799999;;;;;;;2.43;78.29688;96044.2;;;;
2020/11/10 03:51:01;;;;;;;9.4;7.799999;;;;;;;2.43;78.29688;96044.2;;;;
2020/11/10 03:52:02;;;;;;;9.4;7.799999;;;;;;;2.43;78.29688;96044.2;;;;
2020/11/10 03:53:02;;;;;;;9.4;7.799999;;;;;;;2.43;78.29688;96044.2;;;;
2020/11/10 03:54:03;;;;;;;9.4;7.799999;;;;;;;2.43;78.29688;96044.2;;;;
2020/11/10 03:55:03;;;;;;;9.4;7.799999;;;;;;;2.43;78.29688;96044.2;;;;
2020/11/10 03:56:04;;;;;;;9.4;7.799999;;;;;;;2.43;78.29688;96044.2;;;;
2020/11/10 03:57:05;;;;;;;9.4;7.799999;;;;;;;2.43;78.29688;96044.2;;;;
2020/11/10 03:58:06;;;;;;;9.700001;7.3;;;;;;;2.34;78.64746;96043.02;;;;
2020/11/10 03:59:06;;;;;;;9.700001;7.3;;;;;;;2.34;78.64746;96043.02;;;;
2020/11/10 04:00:07;;;;;;;9.700001;7.3;;;;;;;2.34;78.64746;96043.02;;;;
2020/11/10 04:01:09;;;;;;;9.700001;7.3;;;;;;;2.34;78.64746;96043.02;;;;
2020/11/10 04:02:10;;;;;;;9.700001;7.3;;;;;;;2.34;78.64746;96043.02;;;;
2020/11/10 04:03:10;;;;;;;9.700001;7.3;;;;;;;2.34;78.64746;96043.02;;;;
2020/11/10 04:04:11;;;;;;;9.700001;7.3;;;;;;;2.34;78.64746;96043.02;;;;
2020/11/10 04:05:11;;;;;;;9.700001;7.3;;;;;;;2.34;78.64746;96043.02;;;;
2020/11/10 04:06:12;;;;;;;9.700001;7.3;;;;;;;2.34;78.64746;96043.02;;;;
2020/11/10 04:07:13;;;;;;;9.700001;7.3;;;;;;;2.34;78.64746;96043.02;;;;
2020/11/10 04:08:13;;;;;;;9.449999;7.350001;;;;;;;2.24;78.88086;96048.54;;;;
2020/11/10 04:09:14;;;;;;;9.449999;7.350001;;;;;;;2.24;78.88086;96048.54;;;;
2020/11/10 04:10:14;;;;;;;9.449999;7.350001;;;;;;;2.24;78.88086;96048.54;;;;
2020/11/10 04:11:15;;;;;;;9.449999;7.350001;;;;;;;2.24;78.88086;96048.54;;;;
2020/11/10 04:12:17;;;;;;;9.449999;7.350001;;;;;;;2.24;78.88086;96048.54;;;;
2020/11/10 04:13:17;;;;;;;9.449999;7.350001;;;;;;;2.24;78.88086;96048.54;;;;
2020/11/10 04:14:18;;;;;;;9.449999;7.350001;;;;;;;2.24;78.88086;96048.54;;;;
2020/11/10 04:15:18;;;;;;;9.449999;7.350001;;;;;;;2.24;78.88086;96048.54;;;;
2020/11/10 04:16:19;;;;;;;9.449999;7.350001;;;;;;;2.24;78.88086;96048.54;;;;
2020/11/10 04:17:19;;;;;;;9.449999;7.350001;;;;;;;2.24;78.88086;96048.54;;;;
2020/11/10 04:18:20;;;;;;;9.449999;7.350001;;;;;;;2.24;78.88086;96048.54;;;;
2020/11/10 04:19:20;;;;;;;9;7.3;;;;;;;2.22;78.74023;96051.03;;;;
2020/11/10 04:20:21;;;;;;;9;7.3;;;;;;;2.22;78.74023;96051.03;;;;
2020/11/10 04:21:22;;;;;;;9;7.3;;;;;;;2.22;78.74023;96051.03;;;;
2020/11/10 04:22:25;;;;;;;9;7.3;;;;;;;2.22;78.74023;96051.03;;;;
2020/11/10 04:23:26;;;;;;;9;7.3;;;;;;;2.22;78.74023;96051.03;;;;
2020/11/10 04:24:27;;;;;;;9;7.3;;;;;;;2.22;78.74023;96051.03;;;;
2020/11/10 04:25:28;;;;;;;9;7.3;;;;;;;2.22;78.74023;96051.03;;;;
2020/11/10 04:26:28;;;;;;;9;7.3;;;;;;;2.22;78.74023;96051.03;;;;
2020/11/10 04:27:29;;;;;;;9;7.3;;;;;;;2.22;78.74023;96051.03;;;;
2020/11/10 04:28:29;;;;;;;9;7.3;;;;;;;2.22;78.74023;96051.03;;;;
2020/11/10 04:29:30;;;;;;;8.550001;6.95;;;;;;;2.14;78.6416;96053.17;;;;
2020/11/10 04:30:30;;;;;;;8.550001;6.95;;;;;;;2.14;78.6416;96053.17;;;;
2020/11/10 04:31:31;;;;;;;8.550001;6.95;;;;;;;2.14;78.6416;96053.17;;;;
2020/11/10 04:32:31;;;;;;;8.550001;6.95;;;;;;;2.14;78.6416;96053.17;;;;
2020/11/10 04:33:32;;;;;;;8.550001;6.95;;;;;;;2.14;78.6416;96053.17;;;;
2020/11/10 04:34:32;;;;;;;8.550001;6.95;;;;;;;2.14;78.6416;96053.17;;;;
2020/11/10 04:35:33;;;;;;;8.550001;6.95;;;;;;;2.14;78.6416;96053.17;;;;
2020/11/10 04:36:33;;;;;;;8.550001;6.95;;;;;;;2.14;78.6416;96053.17;;;;
2020/11/10 04:37:34;;;;;;;8.550001;6.95;;;;;;;2.14;78.6416;96053.17;;;;
2020/11/10 04:38:36;;;;;;;8.550001;6.95;;;;;;;2.14;78.6416;96053.17;;;;
2020/11/10 04:39:36;;;;;;;8.550001;6.95;;;;;;;2.14;78.6416;96053.17;;;;
2020/11/10 04:40:37;;;;;;;7.45;6.650001;;;;;;;2.1;78.70703;96048.36;;;;
2020/11/10 04:41:37;;;;;;;7.45;6.650001;;;;;;;2.1;78.70703;96048.36;;;;
2020/11/10 04:42:38;;;;;;;7.45;6.650001;;;;;;;2.1;78.70703;96048.36;;;;
2020/11/10 04:43:38;;;;;;;7.45;6.650001;;;;;;;2.1;78.70703;96048.36;;;;
2020/11/10 04:44:39;;;;;;;7.45;6.650001;;;;;;;2.1;78.70703;96048.36;;;;
2020/11/10 04:45:42;;;;;;;7.45;6.650001;;;;;;;2.1;78.70703;96048.36;;;;
2020/11/10 04:46:42;;;;;;;7.45;6.650001;;;;;;;2.1;78.70703;96048.36;;;;
2020/11/10 04:47:45;;;;;;;7.45;6.650001;;;;;;;2.1;78.70703;96048.36;;;;
2020/11/10 04:48:48;;;;;;;7.45;6.650001;;;;;;;2.1;78.70703;96048.36;;;;
2020/11/10 04:50:03;;;;;;;7.45;6.650001;;;;;;;2.1;78.70703;96048.36;;;;
2020/11/10 04:51:04;;;;;;;8.699999;7.15;;;;;;;1.98;78.7998;96050.08;;;;
2020/11/10 04:52:13;;;;;;;8.699999;7.15;;;;;;;1.98;78.7998;96050.08;;;;
2020/11/10 04:53:21;;;;;;;8.699999;7.15;;;;;;;1.98;78.7998;96050.08;;;;
2020/11/10 04:54:30;;;;;;;8.699999;7.15;;;;;;;1.98;78.7998;96050.08;;;;
2020/11/10 04:55:32;;;;;;;8.699999;7.15;;;;;;;1.98;78.7998;96050.08;;;;
2020/11/10 04:56:34;;;;;;;8.699999;7.15;;;;;;;1.98;78.7998;96050.08;;;;
2020/11/10 04:57:34;;;;;;;8.699999;7.15;;;;;;;1.98;78.7998;96050.08;;;;
2020/11/10 04:58:35;;;;;;;8.699999;7.15;;;;;;;1.98;78.7998;96050.08;;;;
2020/11/10 04:59:36;;;;;;;8.699999;7.15;;;;;;;1.98;78.7998;96050.08;;;;
2020/11/10 05:00:36;;;;;;;8.699999;7.15;;;;;;;1.98;78.7998;96050.08;;;;
2020/11/10 05:01:49;;;;;;;8.799999;6.95;;;;;;;1.94;79.02441;96047.86;;;;
2020/11/10 05:02:50;;;;;;;8.799999;6.95;;;;;;;1.94;79.02441;96047.86;;;;
2020/11/10 05:03:50;;;;;;;8.799999;6.95;;;;;;;1.94;79.02441;96047.86;;;;
2020/11/10 05:04:54;;;;;;;8.799999;6.95;;;;;;;1.94;79.02441;96047.86;;;;
2020/11/10 05:05:57;;;;;;;8.799999;6.95;;;;;;;1.94;79.02441;96047.86;;;;
2020/11/10 05:07:14;;;;;;;8.799999;6.95;;;;;;;1.94;79.02441;96047.86;;;;
2020/11/10 05:08:15;;;;;;;8.799999;6.95;;;;;;;1.94;79.02441;96047.86;;;;
2020/11/10 05:09:24;;;;;;;8.799999;6.95;;;;;;;1.94;79.02441;96047.86;;;;
2020/11/10 05:10:30;;;;;;;8.799999;6.95;;;;;;;1.94;79.02441;96047.86;;;;
2020/11/10 05:11:34;;;;;;;8.799999;6.95;;;;;;;1.94;79.02441;96047.86;;;;
2020/11/10 05:12:35;;;;;;;12.85;7.200001;;;;;;;1.85;79.13477;96050.56;;;;
2020/11/10 05:13:35;;;;;;;12.85;7.200001;;;;;;;1.85;79.13477;96050.56;;;;
2020/11/10 05:14:48;;;;;;;12.85;7.200001;;;;;;;1.85;79.13477;96050.56;;;;
2020/11/10 05:15:51;;;;;;;12.85;7.200001;;;;;;;1.85;79.13477;96050.56;;;;
2020/11/10 05:17:00;;;;;;;12.85;7.200001;;;;;;;1.85;79.13477;96050.56;;;;
2020/11/10 05:18:06;;;;;;;12.85;7.200001;;;;;;;1.85;79.13477;96050.56;;;;
2020/11/10 05:19:15;;;;;;;12.85;7.200001;;;;;;;1.85;79.13477;96050.56;;;;
2020/11/10 05:20:22;;;;;;;12.85;7.200001;;;;;;;1.85;79.13477;96050.56;;;;
2020/11/10 05:21:31;;;;;;;12.85;7.200001;;;;;;;1.85;79.13477;96050.56;;;;
2020/11/10 05:22:37;;;;;;;11.05;7.799999;;;;;;;1.82;79.20117;96062.45;;;;
2020/11/10 05:23:38;;;;;;;11.05;7.799999;;;;;;;1.82;79.20117;96062.45;;;;
2020/11/10 05:24:48;;;;;;;11.05;7.799999;;;;;;;1.82;79.20117;96062.45;;;;
2020/11/10 05:25:50;;;;;;;11.05;7.799999;;;;;;;1.82;79.20117;96062.45;;;;
2020/11/10 05:26:53;;;;;;;11.05;7.799999;;;;;;;1.82;79.20117;96062.45;;;;
2020/11/10 05:27:53;;;;;;;11.05;7.799999;;;;;;;1.82;79.20117;96062.45;;;;
2020/11/10 05:28:54;;;;;;;11.05;7.799999;;;;;;;1.82;79.20117;96062.45;;;;
2020/11/10 05:30:10;;;;;;;11.05;7.799999;;;;;;;1.82;79.20117;96062.45;;;;
2020/11/10 05:31:25;;;;;;;11.05;7.799999;;;;;;;1.82;79.20117;96062.45;;;;
2020/11/10 05:32:26;;;;;;;11.05;7.799999;;;;;;;1.82;79.20117;96062.45;;;;
2020/11/10 05:33:29;;;;;;;8.050001;7.2;;;;;;;1.73;79.25684;96061.69;;;;
2020/11/10 05:34:38;;;;;;;8.050001;7.2;;;;;;;1.73;79.25684;96061.69;;;;
2020/11/10 05:35:44;;;;;;;8.050001;7.2;;;;;;;1.73;79.25684;96061.69;;;;
2020/11/10 05:36:44;;;;;;;8.050001;7.2;;;;;;;1.73;79.25684;96061.69;;;;
2020/11/10 05:37:50;;;;;;;8.050001;7.2;;;;;;;1.73;79.25684;96061.69;;;;
2020/11/10 05:38:55;;;;;;;8.050001;7.2;;;;;;;1.73;79.25684;96061.69;;;;